Time;durP1;ratioP1;P1;durP2;ratioP2;P2;SDS_P1;SDS_P2;PMS_P1;PMS_P2;Temp;Humidity;BMP_temperature;BMP_pressure;BME280_temperature;BME280_humidity;BME280_pressure;Samples;Min_cycle;Max_cycle;Signal;HPM_P1;HPM_P2
2022/10/30 00:00:07;;;;;;;18.10;13.57;;;15.80;99.90;;;;;;5136934;27;20474;-91
2022/10/30 00:02:57;;;;;;;21.23;13.47;;;15.80;99.90;;;;;;5159825;27;20441;-92
2022/10/30 00:05:31;;;;;;;18.43;13.40;;;15.70;99.90;;;;;;5147387;27;20445;-91
2022/10/30 00:07:59;;;;;;;22.03;14.43;;;15.70;99.90;;;;;;5143209;27;20515;-91
2022/10/30 00:10:28;;;;;;;19.93;14.70;;;15.70;99.90;;;;;;5142026;27;20437;-91
2022/10/30 00:12:55;;;;;;;21.30;14.20;;;15.80;99.90;;;;;;5142783;27;20492;-91
2022/10/30 00:15:21;;;;;;;17.87;12.80;;;15.70;99.90;;;;;;5142729;27;20443;-91
2022/10/30 00:17:49;;;;;;;24.80;13.40;;;15.70;99.90;;;;;;5141573;27;20544;-91
2022/10/30 00:20:16;;;;;;;18.27;13.90;;;15.70;99.90;;;;;;5133915;27;20457;-92
2022/10/30 00:22:49;;;;;;;18.67;14.37;;;15.60;99.90;;;;;;5141221;27;20957;-91
2022/10/30 00:25:18;;;;;;;19.97;14.60;;;15.60;99.90;;;;;;5120026;28;20491;-91
2022/10/30 00:27:45;;;;;;;22.07;13.60;;;15.60;99.90;;;;;;5140552;27;20840;-91
2022/10/30 00:30:20;;;;;;;20.00;13.00;;;15.70;99.90;;;;;;5140219;27;20473;-93
2022/10/30 00:38:29;;;;;;;18.63;12.67;;;15.70;99.90;;;;;;5141350;27;20968;-92
2022/10/30 00:40:56;;;;;;;18.17;13.57;;;15.70;99.90;;;;;;5153464;27;20463;-91
2022/10/30 00:43:30;;;;;;;29.93;14.97;;;15.60;99.90;;;;;;5142213;27;20513;-90
2022/10/30 00:45:59;;;;;;;22.37;13.57;;;15.60;99.90;;;;;;5131788;27;20441;-91
2022/10/30 00:48:26;;;;;;;15.87;11.63;;;15.60;99.90;;;;;;5132982;27;20491;-92
2022/10/30 00:50:54;;;;;;;17.10;12.60;;;15.50;99.90;;;;;;5145282;27;20433;-91
2022/10/30 00:53:22;;;;;;;16.20;12.50;;;15.50;99.90;;;;;;5137659;27;20469;-91
2022/10/30 00:55:54;;;;;;;23.43;13.40;;;15.50;99.90;;;;;;5137982;27;20426;-90
2022/10/30 00:58:30;;;;;;;18.13;11.80;;;15.50;99.90;;;;;;5133226;27;20469;-91
2022/10/30 01:01:00;;;;;;;17.87;12.87;;;15.50;99.90;;;;;;5136011;27;20846;-91
2022/10/30 01:03:29;;;;;;;16.40;12.27;;;15.40;99.90;;;;;;5157271;27;20432;-90
2022/10/30 01:05:58;;;;;;;19.90;12.03;;;15.50;99.90;;;;;;5138102;27;20445;-91
2022/10/30 01:08:25;;;;;;;20.33;13.10;;;15.40;99.90;;;;;;5137109;27;20457;-91
2022/10/30 01:10:54;;;;;;;16.43;12.97;;;15.50;99.90;;;;;;5137737;27;20521;-91
2022/10/30 01:13:23;;;;;;;14.97;12.80;;;15.50;99.90;;;;;;5137610;27;20540;-90
2022/10/30 01:16:11;;;;;;;16.77;13.30;;;15.50;99.90;;;;;;5125889;27;20478;-91
2022/10/30 01:18:51;;;;;;;19.47;13.73;;;15.50;99.90;;;;;;5139058;27;20438;-91
2022/10/30 01:21:37;;;;;;;20.10;12.73;;;15.50;99.90;;;;;;5145811;27;20479;-90
2022/10/30 01:24:22;;;;;;;18.33;11.93;;;15.50;99.90;;;;;;5146729;27;20697;-90
2022/10/30 01:26:59;;;;;;;14.17;12.10;;;15.40;99.90;;;;;;5153647;27;20452;-90
2022/10/30 01:29:35;;;;;;;16.23;13.10;;;15.40;99.90;;;;;;5140922;27;20453;-91
2022/10/30 01:32:28;;;;;;;23.10;12.57;;;15.40;99.90;;;;;;5137251;27;20444;-91
2022/10/30 01:34:59;;;;;;;17.60;13.90;;;15.40;99.90;;;;;;5137587;27;20541;-91
2022/10/30 01:37:32;;;;;;;14.37;11.10;;;15.40;99.90;;;;;;5131030;28;20501;-91
2022/10/30 01:40:05;;;;;;;16.43;12.00;;;15.40;99.90;;;;;;5146279;27;20475;-91
2022/10/30 01:42:49;;;;;;;18.57;13.53;;;15.40;99.90;;;;;;5132528;27;20447;-90
2022/10/30 01:45:24;;;;;;;14.50;11.23;;;15.30;99.90;;;;;;5155197;27;20415;-91
2022/10/30 01:48:06;;;;;;;15.80;12.27;;;15.30;99.90;;;;;;5145496;27;20472;-90
2022/10/30 01:50:40;;;;;;;21.90;13.30;;;15.30;99.90;;;;;;5133913;27;20445;-90
2022/10/30 01:53:18;;;;;;;19.80;11.70;;;15.20;99.90;;;;;;5132446;27;20873;-91
2022/10/30 01:55:55;;;;;;;23.33;13.03;;;15.20;99.90;;;;;;5136376;27;20457;-91
2022/10/30 01:58:29;;;;;;;26.77;13.17;;;15.10;99.90;;;;;;5118631;27;20457;-91
2022/10/30 02:00:58;;;;;;;17.57;12.63;;;15.10;99.90;;;;;;5137066;27;20481;-90
2022/10/30 02:03:26;;;;;;;18.27;11.00;;;15.10;99.90;;;;;;5146186;27;20448;-90
2022/10/30 02:05:53;;;;;;;20.70;11.60;;;15.10;99.90;;;;;;5139625;27;20442;-90
2022/10/30 02:08:21;;;;;;;16.37;12.30;;;15.10;99.90;;;;;;5136649;27;20479;-92
2022/10/30 02:10:52;;;;;;;19.53;12.70;;;15.10;99.90;;;;;;5137546;27;20445;-91
2022/10/30 02:13:18;;;;;;;20.70;11.63;;;15.10;99.90;;;;;;5133190;27;20442;-90
2022/10/30 02:15:49;;;;;;;14.47;11.07;;;15.10;99.90;;;;;;5119895;27;20948;-90
2022/10/30 02:18:16;;;;;;;20.63;11.60;;;15.10;99.90;;;;;;5124934;27;20465;-91
2022/10/30 02:20:44;;;;;;;17.67;12.10;;;15.10;99.90;;;;;;5133351;27;20465;-91
2022/10/30 02:23:17;;;;;;;19.37;10.57;;;15.10;99.90;;;;;;5116742;27;20414;-89
2022/10/30 02:25:44;;;;;;;16.33;12.20;;;15.20;99.90;;;;;;5134294;27;20467;-90
2022/10/30 02:28:11;;;;;;;18.20;11.57;;;15.10;99.90;;;;;;5156250;27;20520;-90
2022/10/30 02:30:38;;;;;;;16.40;10.20;;;15.10;99.90;;;;;;5152365;27;20464;-90
2022/10/30 02:33:05;;;;;;;14.53;10.37;;;15.10;99.90;;;;;;5141714;27;20441;-90
2022/10/30 02:35:34;;;;;;;16.90;10.97;;;15.20;99.90;;;;;;5135798;27;20500;-89
2022/10/30 02:38:02;;;;;;;13.23;9.93;;;15.30;99.90;;;;;;5131817;27;20469;-90
2022/10/30 02:40:29;;;;;;;16.40;11.03;;;15.30;99.90;;;;;;5141539;27;20552;-91
2022/10/30 02:42:56;;;;;;;18.00;11.10;;;15.20;99.90;;;;;;5149848;27;20437;-91
2022/10/30 02:45:23;;;;;;;17.30;10.40;;;15.20;99.90;;;;;;5157356;27;20463;-91
2022/10/30 02:47:50;;;;;;;13.80;11.00;;;15.20;99.90;;;;;;5155802;27;20565;-90
2022/10/30 02:50:17;;;;;;;19.10;10.83;;;15.20;99.90;;;;;;5155816;27;20859;-90
2022/10/30 02:52:44;;;;;;;15.57;10.73;;;15.20;99.90;;;;;;5155646;27;20451;-91
2022/10/30 02:55:12;;;;;;;16.23;11.10;;;15.20;99.90;;;;;;5149983;27;20479;-92
2022/10/30 02:57:39;;;;;;;18.17;10.40;;;15.10;99.90;;;;;;5125332;27;20463;-91
2022/10/30 03:00:07;;;;;;;16.20;10.40;;;15.10;99.90;;;;;;5132508;27;20467;-91
2022/10/30 03:02:34;;;;;;;16.03;9.10;;;15.20;99.90;;;;;;5136643;27;20452;-91
2022/10/30 03:05:01;;;;;;;19.03;11.03;;;15.20;99.90;;;;;;5120329;27;20438;-92
2022/10/30 03:07:28;;;;;;;18.93;9.70;;;15.10;99.90;;;;;;5124247;27;20468;-91
2022/10/30 03:09:54;;;;;;;16.70;10.03;;;15.10;99.90;;;;;;5134741;27;20925;-91
2022/10/30 03:12:23;;;;;;;10.03;8.80;;;15.10;99.90;;;;;;5135253;27;20443;-91
2022/10/30 03:14:50;;;;;;;13.23;9.57;;;15.10;99.90;;;;;;5129295;27;20591;-90
2022/10/30 03:17:17;;;;;;;13.90;10.83;;;15.10;99.90;;;;;;5127189;27;20438;-90
2022/10/30 03:19:43;;;;;;;11.30;9.00;;;15.10;99.90;;;;;;5138278;27;20453;-90
2022/10/30 03:22:10;;;;;;;17.93;11.20;;;15.20;99.90;;;;;;5139079;28;20478;-91
2022/10/30 03:24:38;;;;;;;12.43;9.43;;;15.10;99.90;;;;;;5138185;27;20474;-90
2022/10/30 03:27:04;;;;;;;13.80;9.07;;;15.00;99.90;;;;;;5136058;27;20439;-90
2022/10/30 03:29:33;;;;;;;12.70;9.90;;;15.00;99.90;;;;;;5133226;28;20529;-90
2022/10/30 03:31:59;;;;;;;13.93;9.37;;;15.00;99.90;;;;;;5141921;28;20440;-91
2022/10/30 03:34:27;;;;;;;14.23;9.20;;;15.00;99.90;;;;;;5129395;28;20445;-90
2022/10/30 03:36:54;;;;;;;17.00;10.13;;;15.00;99.90;;;;;;5148973;27;20431;-90
2022/10/30 03:39:21;;;;;;;21.00;14.00;;;15.00;99.90;;;;;;5144876;28;20536;-90
2022/10/30 03:41:48;;;;;;;13.60;9.40;;;15.00;99.90;;;;;;5136626;28;20540;-90
2022/10/30 03:44:14;;;;;;;21.03;12.20;;;14.90;99.90;;;;;;5146986;28;20446;-90
2022/10/30 03:46:43;;;;;;;18.90;9.57;;;14.80;99.90;;;;;;5139022;28;20939;-89
2022/10/30 03:49:10;;;;;;;11.87;9.70;;;14.80;99.90;;;;;;5130466;28;20973;-91
2022/10/30 03:51:36;;;;;;;12.10;9.33;;;14.80;99.90;;;;;;5121859;28;20434;-91
2022/10/30 03:54:03;;;;;;;11.30;9.70;;;14.80;99.90;;;;;;5134800;28;20450;-91
2022/10/30 03:56:30;;;;;;;16.50;8.57;;;14.70;99.90;;;;;;5142001;27;20422;-90
2022/10/30 03:58:57;;;;;;;14.97;8.80;;;14.70;99.90;;;;;;5154361;27;20474;-89
2022/10/30 04:01:24;;;;;;;18.83;11.37;;;14.70;99.90;;;;;;5143542;27;20469;-91
2022/10/30 04:03:52;;;;;;;16.03;10.80;;;14.70;99.90;;;;;;5135982;28;22041;-90
2022/10/30 04:06:19;;;;;;;15.83;10.60;;;14.60;99.90;;;;;;5128104;28;20448;-90
2022/10/30 04:08:45;;;;;;;11.73;10.50;;;14.60;99.90;;;;;;5134550;27;20465;-90
2022/10/30 04:11:12;;;;;;;14.33;9.20;;;14.60;99.90;;;;;;5127652;28;20469;-90
2022/10/30 04:13:39;;;;;;;15.37;10.83;;;14.60;99.90;;;;;;5119785;28;20437;-90
2022/10/30 04:16:06;;;;;;;19.70;9.80;;;14.60;99.90;;;;;;5138197;28;21272;-90
2022/10/30 04:18:33;;;;;;;13.60;9.43;;;14.60;99.90;;;;;;5151419;27;20949;-91
2022/10/30 04:21:01;;;;;;;14.13;8.80;;;14.50;99.90;;;;;;5150067;28;20470;-91
2022/10/30 04:23:28;;;;;;;14.27;9.20;;;14.50;99.90;;;;;;5132754;28;20432;-90
2022/10/30 04:25:55;;;;;;;15.50;10.83;;;14.50;99.90;;;;;;5134828;28;20441;-91
2022/10/30 04:28:22;;;;;;;13.83;9.40;;;14.50;99.90;;;;;;5134060;28;20489;-90
2022/10/30 04:30:49;;;;;;;13.40;9.87;;;14.50;99.90;;;;;;5134116;28;20862;-91
2022/10/30 04:33:16;;;;;;;14.13;10.43;;;14.50;99.90;;;;;;5140674;28;20437;-90
2022/10/30 04:35:43;;;;;;;19.40;10.33;;;14.30;99.90;;;;;;5115445;27;20439;-91
2022/10/30 04:38:13;;;;;;;17.37;9.27;;;14.30;99.90;;;;;;5136270;27;20844;-91
2022/10/30 04:40:43;;;;;;;13.50;8.30;;;14.30;99.90;;;;;;5138067;27;20480;-91
2022/10/30 04:43:10;;;;;;;17.07;9.30;;;14.30;99.90;;;;;;5138526;27;20441;-91
2022/10/30 04:45:38;;;;;;;14.03;9.20;;;14.30;99.90;;;;;;5148123;27;20413;-91
2022/10/30 04:48:07;;;;;;;12.23;8.10;;;14.30;99.90;;;;;;5159840;27;20453;-90
2022/10/30 04:50:34;;;;;;;12.53;8.40;;;14.30;99.90;;;;;;5137922;27;20441;-91
2022/10/30 04:53:02;;;;;;;15.63;9.80;;;14.30;99.90;;;;;;5156191;27;20520;-90
2022/10/30 04:55:31;;;;;;;13.30;8.73;;;14.20;99.90;;;;;;5153422;27;20441;-90
2022/10/30 04:58:06;;;;;;;10.97;8.87;;;14.20;99.90;;;;;;5135581;27;20464;-90
2022/10/30 05:00:33;;;;;;;18.60;8.93;;;14.20;99.90;;;;;;5123637;27;20795;-90
2022/10/30 05:03:01;;;;;;;12.77;9.57;;;14.10;99.90;;;;;;5131911;27;20445;-90
2022/10/30 05:05:27;;;;;;;16.33;8.33;;;14.10;99.90;;;;;;5125525;27;20525;-90
2022/10/30 05:07:54;;;;;;;13.77;9.07;;;14.10;99.90;;;;;;5145445;27;20464;-89
2022/10/30 05:10:21;;;;;;;14.90;8.53;;;14.00;99.90;;;;;;5141934;27;20433;-90
2022/10/30 05:12:52;;;;;;;11.43;8.30;;;14.00;99.90;;;;;;5149586;27;20453;-90
2022/10/30 05:15:19;;;;;;;12.73;8.60;;;14.00;99.90;;;;;;5149617;27;20452;-92
2022/10/30 05:17:50;;;;;;;16.53;9.30;;;13.90;99.90;;;;;;5144942;27;20506;-90
2022/10/30 05:20:17;;;;;;;10.43;7.40;;;13.90;99.90;;;;;;5141115;27;20423;-91
2022/10/30 05:22:44;;;;;;;16.60;9.50;;;13.90;99.90;;;;;;5134172;27;20475;-90
2022/10/30 05:25:11;;;;;;;15.17;8.70;;;13.90;99.90;;;;;;5145813;27;20410;-90
2022/10/30 05:27:40;;;;;;;15.27;8.70;;;13.90;99.90;;;;;;5152498;27;20477;-90
2022/10/30 05:30:09;;;;;;;19.43;9.10;;;13.90;99.90;;;;;;5157388;27;20453;-91
2022/10/30 05:32:36;;;;;;;13.20;8.57;;;14.00;99.90;;;;;;5138085;27;20443;-90
2022/10/30 05:35:04;;;;;;;13.90;9.07;;;13.90;99.90;;;;;;5137316;27;20433;-91
2022/10/30 05:37:33;;;;;;;11.53;8.00;;;14.00;99.90;;;;;;5136598;27;20533;-91
2022/10/30 05:40:00;;;;;;;11.83;8.53;;;13.90;99.90;;;;;;5137757;27;20544;-90
2022/10/30 05:42:38;;;;;;;14.97;8.73;;;13.90;99.90;;;;;;5129519;27;20485;-91
2022/10/30 05:45:05;;;;;;;15.07;8.90;;;13.90;99.90;;;;;;5134611;27;20532;-91
2022/10/30 05:47:34;;;;;;;14.60;8.40;;;13.90;99.90;;;;;;5130268;27;20478;-90
2022/10/30 05:50:01;;;;;;;15.33;9.30;;;13.90;99.90;;;;;;5139533;27;20905;-90
2022/10/30 05:52:28;;;;;;;14.60;7.47;;;13.80;99.90;;;;;;5140869;27;20925;-85
2022/10/30 05:54:54;;;;;;;18.80;8.40;;;13.80;99.90;;;;;;5138880;27;20437;-83
2022/10/30 05:57:21;;;;;;;14.47;8.23;;;13.80;99.90;;;;;;5138191;27;20460;-83
2022/10/30 05:59:48;;;;;;;11.37;8.27;;;13.80;99.90;;;;;;5136263;27;20444;-82
2022/10/30 06:02:16;;;;;;;13.07;9.23;;;13.80;99.90;;;;;;5141204;27;20504;-83
2022/10/30 06:04:44;;;;;;;15.13;7.87;;;13.80;99.90;;;;;;5140921;27;20437;-83
2022/10/30 06:07:11;;;;;;;12.70;8.30;;;13.80;99.90;;;;;;5130238;27;20906;-83
2022/10/30 06:09:38;;;;;;;15.10;8.23;;;13.80;99.90;;;;;;5150652;27;20498;-89
2022/10/30 06:12:05;;;;;;;12.27;8.77;;;13.70;99.90;;;;;;5136091;27;20959;-90
2022/10/30 06:14:32;;;;;;;9.03;7.80;;;13.70;99.90;;;;;;5136234;27;20483;-88
2022/10/30 06:16:59;;;;;;;10.93;8.57;;;13.70;99.90;;;;;;5135341;27;20520;-88
2022/10/30 06:19:25;;;;;;;15.13;8.33;;;13.80;99.90;;;;;;5135307;27;20442;-88
2022/10/30 06:22:02;;;;;;;12.80;9.10;;;13.80;99.90;;;;;;5130490;27;20497;-88
2022/10/30 06:24:29;;;;;;;18.90;9.50;;;13.80;99.90;;;;;;5123726;27;20438;-88
2022/10/30 06:27:04;;;;;;;12.93;7.30;;;13.90;99.90;;;;;;5126038;27;20956;-90
2022/10/30 06:29:32;;;;;;;11.60;7.50;;;13.80;99.90;;;;;;5132317;27;20449;-90
2022/10/30 06:32:03;;;;;;;13.20;8.43;;;13.90;99.90;;;;;;5128057;27;20537;-90
2022/10/30 06:34:30;;;;;;;15.63;8.47;;;13.90;99.90;;;;;;5121378;27;20425;-90
2022/10/30 06:37:04;;;;;;;12.40;8.30;;;13.90;99.90;;;;;;5125730;27;20444;-90
2022/10/30 06:39:33;;;;;;;11.60;8.30;;;13.90;99.90;;;;;;5131777;27;20521;-90
2022/10/30 06:42:02;;;;;;;13.97;8.10;;;13.90;99.90;;;;;;5121341;27;20480;-92
2022/10/30 06:44:29;;;;;;;18.43;8.73;;;13.90;99.90;;;;;;5131264;27;20450;-90
2022/10/30 06:47:17;;;;;;;15.03;7.80;;;13.90;99.90;;;;;;5135686;27;20988;-90
2022/10/30 06:49:50;;;;;;;13.67;8.53;;;14.00;99.90;;;;;;5124967;27;20446;-90
2022/10/30 06:52:50;;;;;;;16.17;8.40;;;14.00;99.90;;;;;;5137500;27;20445;-91
2022/10/30 06:55:23;;;;;;;16.23;9.40;;;14.00;99.90;;;;;;5146953;27;20449;-91
2022/10/30 06:58:12;;;;;;;11.67;9.17;;;14.00;99.90;;;;;;5147415;27;20500;-91
2022/10/30 07:00:42;;;;;;;23.47;9.27;;;14.10;99.90;;;;;;5138345;27;20506;-91
2022/10/30 07:03:16;;;;;;;16.40;8.43;;;14.10;99.90;;;;;;5138453;27;20561;-91
2022/10/30 07:06:08;;;;;;;;;;;;;;;;;;;;;
2022/10/30 07:08:59;;;;;;;15.73;8.97;;;14.20;99.90;;;;;;5135456;27;20458;-91
2022/10/30 07:12:05;;;;;;;11.10;8.53;;;14.10;99.90;;;;;;5142606;27;20428;-91
2022/10/30 07:14:32;;;;;;;10.30;7.80;;;14.20;99.90;;;;;;5138200;27;20438;-90
2022/10/30 07:16:59;;;;;;;10.30;7.30;;;14.20;99.90;;;;;;5147641;27;20433;-90
2022/10/30 07:19:26;;;;;;;15.40;9.17;;;14.20;99.90;;;;;;5143255;27;20467;-90
2022/10/30 07:21:53;;;;;;;13.13;8.10;;;14.30;99.90;;;;;;5135520;27;20565;-90
2022/10/30 07:24:25;;;;;;;12.80;8.47;;;14.30;99.90;;;;;;5135007;28;20519;-91
2022/10/30 07:26:55;;;;;;;21.27;10.80;;;14.40;99.90;;;;;;5135808;28;20453;-92
2022/10/30 07:29:28;;;;;;;17.33;9.93;;;14.50;99.90;;;;;;5135546;27;20484;-91
2022/10/30 07:32:31;;;;;;;15.20;9.00;;;14.50;99.90;;;;;;5135309;28;20464;-91
2022/10/30 07:35:00;;;;;;;18.27;7.23;;;14.50;99.90;;;;;;5126778;28;20441;-91
2022/10/30 07:37:31;;;;;;;10.93;7.63;;;14.50;99.90;;;;;;5134939;28;20500;-91
2022/10/30 07:40:13;;;;;;;13.30;7.40;;;14.50;99.90;;;;;;5134420;28;20449;-92
2022/10/30 07:42:45;;;;;;;11.80;7.30;;;14.60;99.90;;;;;;5135067;28;20940;-91
2022/10/30 07:45:12;;;;;;;12.90;7.87;;;14.60;99.90;;;;;;5135095;28;20450;-91
2022/10/30 07:47:40;;;;;;;14.13;6.83;;;14.70;99.90;;;;;;5133499;27;20465;-92
2022/10/30 07:50:15;;;;;;;14.90;8.20;;;14.80;99.90;;;;;;5134461;28;20460;-91
2022/10/30 07:52:46;;;;;;;11.90;7.30;;;14.90;99.90;;;;;;5135042;28;20494;-92
2022/10/30 07:55:16;;;;;;;18.43;8.60;;;15.00;99.90;;;;;;5143258;27;20449;-92
2022/10/30 07:57:48;;;;;;;9.63;7.23;;;15.10;99.90;;;;;;5158125;27;20499;-92
2022/10/30 08:00:16;;;;;;;12.13;6.53;;;15.30;99.90;;;;;;5148582;27;20449;-92
2022/10/30 08:02:43;;;;;;;12.00;7.10;;;15.40;99.90;;;;;;5139037;28;20505;-89
2022/10/30 08:05:13;;;;;;;10.70;7.77;;;15.50;99.90;;;;;;5143300;28;20445;-93
2022/10/30 08:07:45;;;;;;;11.87;6.90;;;15.90;99.90;;;;;;5134700;28;20957;-90
2022/10/30 08:10:30;;;;;;;10.80;7.17;;;16.90;99.90;;;;;;5143665;28;20441;-91
2022/10/30 08:13:00;;;;;;;12.40;7.17;;;17.80;99.90;;;;;;5143761;27;20436;-91
2022/10/30 08:15:32;;;;;;;14.77;6.60;;;18.10;99.90;;;;;;5143523;27;20944;-91
2022/10/30 08:18:19;;;;;;;9.73;5.90;;;18.10;99.90;;;;;;5145967;27;20465;-90
2022/10/30 08:20:50;;;;;;;10.50;6.60;;;18.10;99.90;;;;;;5139962;27;20448;-92
2022/10/30 08:23:18;;;;;;;10.87;8.07;;;18.30;99.90;;;;;;5141620;27;20465;-90
2022/10/30 08:25:47;;;;;;;13.17;7.33;;;18.90;99.90;;;;;;5141631;27;20449;-89
2022/10/30 08:28:14;;;;;;;11.33;6.60;;;19.70;99.90;;;;;;5142023;27;21214;-89
2022/10/30 08:30:41;;;;;;;11.63;6.87;;;20.00;99.90;;;;;;5146311;27;20459;-90
2022/10/30 08:33:12;;;;;;;12.83;6.73;;;20.10;99.90;;;;;;5137437;27;20510;-89
2022/10/30 08:35:39;;;;;;;9.27;7.27;;;19.80;99.90;;;;;;5126637;27;20449;-89
2022/10/30 08:38:06;;;;;;;12.30;6.87;;;19.70;99.90;;;;;;5137773;27;20468;-89
2022/10/30 08:40:36;;;;;;;16.20;6.60;;;19.70;99.90;;;;;;5142451;27;20429;-88
2022/10/30 08:43:05;;;;;;;11.00;5.60;;;19.80;99.90;;;;;;5149915;27;20492;-90
2022/10/30 08:45:31;;;;;;;12.40;6.80;;;19.80;99.90;;;;;;5149949;27;20455;-89
2022/10/30 08:48:15;;;;;;;10.07;6.10;;;19.70;99.90;;;;;;5140897;27;20556;-90
2022/10/30 08:50:43;;;;;;;12.47;6.20;;;19.90;99.90;;;;;;5126969;27;20422;-90
2022/10/30 08:53:12;;;;;;;12.43;6.40;;;20.40;99.90;;;;;;5140780;27;20480;-89
2022/10/30 08:55:39;;;;;;;9.80;6.20;;;20.90;99.90;;;;;;5143727;27;20524;-90
2022/10/30 08:58:10;;;;;;;10.60;6.97;;;20.80;99.90;;;;;;5134464;27;20879;-90
2022/10/30 09:00:37;;;;;;;14.57;6.97;;;20.50;99.90;;;;;;5140086;27;20472;-90
2022/10/30 09:03:04;;;;;;;7.63;5.03;;;20.20;99.90;;;;;;5133027;27;20488;-90
2022/10/30 09:05:31;;;;;;;16.17;5.97;;;20.10;99.90;;;;;;5129601;27;20433;-90
2022/10/30 09:07:59;;;;;;;9.53;5.93;;;19.90;99.90;;;;;;5138828;27;20480;-89
2022/10/30 09:10:26;;;;;;;10.03;6.33;;;20.40;99.90;;;;;;5138567;27;20437;-89
2022/10/30 09:12:57;;;;;;;9.70;6.37;;;21.30;99.90;;;;;;5137394;27;20524;-89
2022/10/30 09:15:26;;;;;;;9.50;6.23;;;21.90;98.60;;;;;;5135365;27;20481;-89
2022/10/30 09:17:57;;;;;;;11.83;6.20;;;22.10;98.50;;;;;;5138695;27;20493;-89
2022/10/30 09:20:25;;;;;;;9.03;5.23;;;22.50;97.80;;;;;;5138472;27;20457;-89
2022/10/30 09:22:55;;;;;;;11.63;5.47;;;22.80;96.40;;;;;;5141996;27;20496;-91
2022/10/30 09:25:25;;;;;;;8.60;5.87;;;22.20;95.40;;;;;;5145938;27;20426;-92
2022/10/30 09:28:01;;;;;;;7.83;5.60;;;22.10;96.40;;;;;;5154357;27;20448;-92
2022/10/30 09:30:40;;;;;;;8.63;5.73;;;21.80;95.90;;;;;;5151108;27;20508;-91
2022/10/30 09:33:10;;;;;;;7.23;6.53;;;21.60;96.50;;;;;;5151434;27;20523;-90
2022/10/30 09:35:52;;;;;;;10.20;5.87;;;21.30;96.90;;;;;;5138325;27;20475;-91
2022/10/30 09:41:36;;;;;;;8.40;5.37;;;21.90;97.20;;;;;;5096274;28;20461;-91
2022/10/30 09:44:19;;;;;;;11.17;5.20;;;22.70;95.60;;;;;;5115588;28;20527;-91
2022/10/30 09:47:03;;;;;;;14.33;5.70;;;23.40;95.20;;;;;;5105282;28;20424;-90
2022/10/30 09:49:50;;;;;;;9.97;5.60;;;24.20;94.20;;;;;;5089045;28;20421;-90
2022/10/30 09:52:27;;;;;;;13.50;7.07;;;24.50;92.90;;;;;;5081034;28;20475;-90
2022/10/30 09:55:04;;;;;;;14.37;5.90;;;25.20;92.20;;;;;;5080317;28;20445;-91
2022/10/30 09:58:02;;;;;;;8.40;5.53;;;25.10;90.90;;;;;;5073808;28;20556;-89
2022/10/30 10:00:40;;;;;;;14.13;6.90;;;24.30;92.00;;;;;;5070515;28;20471;-90
2022/10/30 10:03:25;;;;;;;8.70;5.53;;;24.40;92.20;;;;;;5065561;28;20513;-89
2022/10/30 10:06:26;;;;;;;10.70;6.33;;;25.20;91.50;;;;;;5061462;28;20449;-89
2022/10/30 10:09:07;;;;;;;8.67;5.50;;;25.50;90.40;;;;;;5061126;28;20504;-88
2022/10/30 10:11:40;;;;;;;12.07;6.10;;;25.30;89.20;;;;;;5074245;28;20963;-89
2022/10/30 10:14:13;;;;;;;14.13;6.00;;;25.70;89.40;;;;;;5070226;28;21012;-88
2022/10/30 10:16:45;;;;;;;8.30;5.27;;;27.60;85.10;;;;;;5081523;28;20447;-90
2022/10/30 10:19:27;;;;;;;11.20;6.57;;;28.30;80.30;;;;;;5081161;28;20468;-89
2022/10/30 10:21:59;;;;;;;6.70;4.63;;;28.90;78.10;;;;;;5078935;28;20505;-90
2022/10/30 10:24:39;;;;;;;12.83;5.53;;;29.80;73.70;;;;;;5068665;28;20440;-90
2022/10/30 10:27:18;;;;;;;9.63;4.83;;;29.80;70.40;;;;;;5064706;28;20838;-91
2022/10/30 10:29:57;;;;;;;6.43;5.40;;;30.20;68.70;;;;;;5063201;28;20444;-90
2022/10/30 10:33:08;;;;;;;10.27;5.47;;;30.00;68.60;;;;;;5091083;28;20449;-90
2022/10/30 10:35:51;;;;;;;8.23;5.73;;;31.30;66.90;;;;;;5063044;28;20459;-90
2022/10/30 10:38:30;;;;;;;9.50;5.23;;;31.50;66.10;;;;;;5066023;28;20503;-91
2022/10/30 10:41:04;;;;;;;8.23;5.40;;;32.60;61.60;;;;;;5069457;28;20416;-90
2022/10/30 10:43:41;;;;;;;6.90;5.13;;;31.90;60.20;;;;;;5079697;28;20553;-90
2022/10/30 10:46:30;;;;;;;9.70;5.80;;;32.10;60.40;;;;;;5069546;28;20444;-90
2022/10/30 10:49:16;;;;;;;10.10;4.67;;;32.80;59.00;;;;;;5071861;28;20464;-90
2022/10/30 10:51:51;;;;;;;6.03;5.30;;;32.50;58.70;;;;;;5070405;28;20499;-89
2022/10/30 10:54:25;;;;;;;10.27;5.73;;;32.40;58.40;;;;;;5071508;28;20446;-91
2022/10/30 10:57:00;;;;;;;7.93;5.40;;;33.90;57.80;;;;;;5060151;28;20448;-91
2022/10/30 10:59:36;;;;;;;5.90;4.53;;;33.90;55.10;;;;;;5065450;28;20450;-89
2022/10/30 11:02:24;;;;;;;7.47;5.07;;;33.50;55.00;;;;;;5072831;28;20469;-90
2022/10/30 11:04:54;;;;;;;7.93;4.93;;;33.50;56.40;;;;;;5080716;28;20496;-91
2022/10/30 11:07:26;;;;;;;8.97;5.50;;;34.50;55.00;;;;;;5075996;28;20462;-89
2022/10/30 11:09:54;;;;;;;10.23;6.50;;;35.30;53.00;;;;;;5064250;28;20447;-89
2022/10/30 11:12:25;;;;;;;11.07;5.87;;;35.50;52.40;;;;;;5063658;28;20448;-89
2022/10/30 11:14:55;;;;;;;8.40;5.53;;;36.30;49.80;;;;;;5066274;28;20442;-90
2022/10/30 11:17:27;;;;;;;7.37;4.93;;;36.20;49.90;;;;;;5078704;28;20435;-93
2022/10/30 11:20:03;;;;;;;12.00;4.53;;;37.50;48.60;;;;;;5078052;28;20467;-90
2022/10/30 11:22:38;;;;;;;7.00;5.23;;;37.80;46.40;;;;;;5057539;28;20474;-91
2022/10/30 11:25:24;;;;;;;4.70;4.03;;;37.50;46.00;;;;;;5057507;28;20483;-93
2022/10/30 11:27:59;;;;;;;5.70;4.20;;;37.70;45.60;;;;;;5059313;28;20474;-91
2022/10/30 11:30:29;;;;;;;11.57;5.53;;;37.40;46.10;;;;;;5068111;28;21030;-90
2022/10/30 11:33:22;;;;;;;8.30;5.53;;;37.20;45.60;;;;;;5069876;28;20466;-89
2022/10/30 11:35:51;;;;;;;9.37;4.87;;;35.90;46.90;;;;;;5064692;28;20438;-90
2022/10/30 11:38:26;;;;;;;7.10;4.83;;;34.80;48.70;;;;;;5059244;28;20724;-92
2022/10/30 11:40:53;;;;;;;8.53;5.27;;;35.70;48.60;;;;;;5068621;28;20478;-90
2022/10/30 11:43:24;;;;;;;8.73;4.93;;;36.00;47.70;;;;;;5059999;28;20452;-90
2022/10/30 11:45:54;;;;;;;8.00;5.03;;;35.60;48.30;;;;;;5087150;28;20536;-88
2022/10/30 11:48:53;;;;;;;10.00;4.90;;;35.80;48.80;;;;;;5075658;28;20454;-90
2022/10/30 11:51:56;;;;;;;10.23;4.37;;;35.90;47.90;;;;;;5061593;28;20479;-88
2022/10/30 11:54:26;;;;;;;10.17;5.20;;;35.40;48.80;;;;;;5057937;28;20461;-89
2022/10/30 11:57:00;;;;;;;6.80;4.20;;;34.50;49.70;;;;;;5057044;28;20432;-90
2022/10/30 11:59:27;;;;;;;8.03;5.17;;;34.40;48.20;;;;;;5060054;28;20539;-89
2022/10/30 12:02:03;;;;;;;10.30;4.07;;;33.60;50.00;;;;;;5063372;28;20446;-89
2022/10/30 12:04:33;;;;;;;6.20;4.67;;;33.00;51.30;;;;;;5062833;28;20485;-91
2022/10/30 12:07:19;;;;;;;7.60;5.40;;;31.50;53.20;;;;;;5060634;28;20443;-88
2022/10/30 12:09:48;;;;;;;7.63;4.10;;;30.30;55.50;;;;;;5064965;28;20519;-89
2022/10/30 12:12:23;;;;;;;8.00;4.80;;;29.40;57.70;;;;;;5057327;28;20441;-89
2022/10/30 12:14:50;;;;;;;9.80;4.70;;;28.90;59.60;;;;;;5058662;28;20438;-89
2022/10/30 12:17:20;;;;;;;7.10;4.77;;;28.60;60.00;;;;;;5064503;28;20450;-89
2022/10/30 12:19:49;;;;;;;7.57;5.20;;;28.10;61.90;;;;;;5074305;28;20483;-89
2022/10/30 12:22:29;;;;;;;7.03;4.13;;;27.80;64.20;;;;;;5064217;28;20433;-89
2022/10/30 12:24:58;;;;;;;9.43;5.37;;;27.50;65.30;;;;;;5056740;28;20483;-89
2022/10/30 12:27:25;;;;;;;8.23;4.97;;;27.20;66.30;;;;;;5067867;28;20566;-89
2022/10/30 12:30:07;;;;;;;10.63;5.50;;;27.30;66.60;;;;;;5062436;28;20436;-88
2022/10/30 12:32:41;;;;;;;14.70;5.43;;;27.20;68.00;;;;;;5057921;28;20443;-88
2022/10/30 12:35:23;;;;;;;11.63;4.63;;;27.20;68.50;;;;;;5058067;28;20453;-88
2022/10/30 12:37:53;;;;;;;7.80;5.10;;;27.20;68.00;;;;;;5061337;28;20488;-88
2022/10/30 12:40:25;;;;;;;9.10;4.80;;;27.00;68.50;;;;;;5076241;28;20471;-89
2022/10/30 12:43:00;;;;;;;7.80;4.50;;;27.00;70.20;;;;;;5069248;28;20455;-89
2022/10/30 12:45:53;;;;;;;8.80;4.83;;;27.10;70.50;;;;;;5057847;28;20451;-90
2022/10/30 12:48:35;;;;;;;7.60;5.70;;;27.00;71.00;;;;;;5048533;28;20489;-89
2022/10/30 12:51:16;;;;;;;7.50;5.07;;;26.80;71.80;;;;;;5066525;28;20955;-89
2022/10/30 12:53:59;;;;;;;11.80;5.13;;;26.80;72.50;;;;;;5074583;28;20448;-89
2022/10/30 12:56:47;;;;;;;8.17;4.80;;;26.70;72.30;;;;;;5074575;28;20464;-88
2022/10/30 12:59:36;;;;;;;8.27;5.27;;;26.60;73.40;;;;;;5075694;28;20452;-88
2022/10/30 13:02:36;;;;;;;11.33;5.67;;;26.50;74.10;;;;;;5079008;28;20519;-90
2022/10/30 13:08:49;;;;;;;8.53;5.00;;;27.20;72.80;;;;;;4988865;28;20460;-91
2022/10/30 13:11:25;;;;;;;9.63;5.23;;;27.60;71.80;;;;;;5046830;28;20549;-90
2022/10/30 13:13:55;;;;;;;11.10;5.50;;;27.90;71.80;;;;;;5201229;22;20499;-88
2022/10/30 13:16:26;;;;;;;9.20;5.47;;;27.90;70.60;;;;;;5104266;28;20447;-92